Terminal Aerodrome Forecast
Issued by NWS Boston, MA

Home | Current Version | Previous Version | Text Only | Print | Product List | Glossary On
Versions: 1 2 3 4 5 6 7 8 9 10 11 12 13 14 15 16 17 18 19 20 21 22 23 24
000
FTUS41 KBOX 062003 AAA
TAFPVD
TAF AMD
KPVD 062003Z 0620/0718 05011KT 5SM -RA BR OVC025
     FM062100 08010KT P6SM OVC020
     FM070000 08008KT 6SM -RA OVC010
     FM070400 06008KT 2SM BR OVC003
     FM071500 06007KT P6SM BKN008=

USA.gov is the U.S. government's official web portal to all federal, state and local government web resources and services.